createdAt,value
2022-08-30T00:00:06.658Z,2.78
2022-08-30T00:02:35.176Z,2.70
2022-08-30T00:05:02.919Z,2.55
2022-08-30T00:07:30.748Z,2.92
2022-08-30T00:09:57.949Z,2.92
2022-08-30T00:12:25.392Z,3.10
2022-08-30T00:14:52.928Z,2.70
2022-08-30T00:17:20.106Z,2.60
2022-08-30T00:19:47.329Z,2.50
2022-08-30T00:22:14.599Z,3.22
2022-08-30T00:24:41.853Z,3.42
2022-08-30T00:27:09.063Z,2.58
2022-08-30T00:29:36.269Z,2.42
2022-08-30T00:32:03.787Z,3.15
2022-08-30T00:34:32.238Z,2.92
2022-08-30T00:36:59.410Z,2.60
2022-08-30T00:39:26.718Z,2.92
2022-08-30T00:41:53.911Z,2.30
2022-08-30T00:44:21.090Z,2.90
2022-08-30T00:46:48.341Z,2.55
2022-08-30T00:49:15.603Z,3.13
2022-08-30T00:51:43.236Z,2.67
2022-08-30T00:54:10.697Z,2.83
2022-08-30T00:56:37.992Z,2.70
2022-08-30T00:59:06.211Z,2.78
2022-08-30T01:01:33.620Z,2.67
2022-08-30T01:04:02.405Z,2.63
2022-08-30T01:06:32.497Z,2.78
2022-08-30T01:09:00.162Z,2.90
2022-08-30T01:11:27.384Z,3.00
2022-08-30T01:13:56.099Z,3.05
2022-08-30T01:16:23.456Z,2.63
2022-08-30T01:18:51.780Z,2.97
2022-08-30T01:21:19.068Z,2.78
2022-08-30T01:23:47.559Z,2.88
2022-08-30T01:26:15.942Z,2.88
2022-08-30T01:28:43.573Z,2.95
2022-08-30T01:31:11.047Z,3.10
2022-08-30T01:33:38.523Z,3.13
2022-08-30T01:36:08.157Z,3.28
2022-08-30T01:38:37.603Z,2.53
2022-08-30T01:41:16.092Z,2.63
2022-08-30T01:43:43.662Z,2.75
2022-08-30T01:46:11.915Z,3.13
2022-08-30T01:48:41.466Z,2.83
2022-08-30T01:51:15.306Z,2.72
2022-08-30T01:53:43.087Z,3.13
2022-08-30T01:56:10.763Z,3.30
2022-08-30T01:58:38.710Z,2.30
2022-08-30T02:01:07.261Z,2.58
2022-08-30T02:03:35.420Z,3.00
2022-08-30T02:06:04.161Z,2.70
2022-08-30T02:08:31.687Z,2.80
2022-08-30T02:11:02.055Z,2.83
2022-08-30T02:13:30.208Z,3.42
2022-08-30T02:15:57.513Z,2.88
2022-08-30T02:18:25.211Z,2.78
2022-08-30T02:20:52.501Z,2.70
2022-08-30T02:23:19.740Z,3.03
2022-08-30T02:25:47.330Z,2.85
2022-08-30T02:28:15.702Z,2.58
2022-08-30T02:30:45.911Z,2.97
2022-08-30T02:33:13.259Z,2.58
2022-08-30T02:35:40.562Z,2.72
2022-08-30T02:38:08.377Z,2.70
2022-08-30T02:40:36.053Z,2.97
2022-08-30T02:43:07.258Z,2.63
2022-08-30T02:45:34.578Z,3.33
2022-08-30T02:48:02.078Z,3.15
2022-08-30T02:50:29.564Z,2.67
2022-08-30T02:52:56.754Z,3.00
2022-08-30T02:55:24.014Z,3.10
2022-08-30T02:57:51.374Z,2.42
2022-08-30T03:00:20.712Z,2.40
2022-08-30T03:05:16.156Z,2.90
2022-08-30T03:07:43.770Z,2.65
2022-08-30T03:10:11.110Z,3.00
2022-08-30T03:12:41.496Z,3.08
2022-08-30T03:15:10.612Z,3.05
2022-08-30T03:17:37.895Z,2.67
2022-08-30T03:20:05.722Z,2.63
2022-08-30T03:22:32.908Z,2.85
2022-08-30T03:25:01.612Z,3.00
2022-08-30T03:27:29.405Z,2.55
2022-08-30T03:29:56.829Z,3.00
2022-08-30T03:32:24.106Z,2.85
2022-08-30T03:34:51.392Z,2.83
2022-08-30T03:37:23.304Z,2.45
2022-08-30T03:39:53.364Z,3.13
2022-08-30T03:42:20.660Z,2.85
2022-08-30T03:44:50.317Z,2.83
2022-08-30T03:47:17.524Z,2.88
2022-08-30T03:49:44.675Z,3.33
2022-08-30T03:52:11.854Z,2.75
2022-08-30T03:54:40.151Z,3.05
2022-08-30T03:57:07.567Z,3.17
2022-08-30T03:59:34.739Z,2.50
2022-08-30T04:02:02.064Z,3.22
2022-08-30T04:04:29.573Z,3.17
2022-08-30T04:06:56.962Z,3.28
2022-08-30T04:09:24.856Z,2.70
2022-08-30T04:11:52.052Z,3.25
2022-08-30T04:14:19.436Z,3.63
2022-08-30T04:16:46.660Z,2.72
2022-08-30T04:19:13.924Z,3.33
2022-08-30T04:21:42.869Z,3.10
2022-08-30T04:24:10.571Z,3.28
2022-08-30T04:26:37.933Z,2.83
2022-08-30T04:29:05.472Z,3.58
2022-08-30T04:31:32.706Z,3.15
2022-08-30T04:36:27.007Z,2.90
2022-08-30T04:38:54.192Z,2.95
2022-08-30T04:41:24.598Z,3.00
2022-08-30T04:43:51.820Z,2.85
2022-08-30T04:46:19.645Z,3.15
2022-08-30T04:48:47.264Z,3.03
2022-08-30T04:51:15.871Z,2.80
2022-08-30T04:53:43.308Z,3.22
2022-08-30T04:56:11.855Z,3.05
2022-08-30T04:58:39.380Z,3.25
2022-08-30T05:01:12.044Z,3.22
2022-08-30T05:06:06.427Z,3.17
2022-08-30T05:08:33.589Z,3.15
2022-08-30T05:11:04.561Z,3.33
2022-08-30T05:13:35.477Z,4.30
2022-08-30T05:16:05.009Z,3.20
2022-08-30T05:18:32.704Z,4.25
2022-08-30T05:21:10.322Z,4.32
2022-08-30T05:23:37.759Z,3.65
2022-08-30T05:26:05.785Z,3.95
2022-08-30T05:28:33.825Z,4.40
2022-08-30T05:31:01.037Z,3.78
2022-08-30T05:33:28.278Z,4.30
2022-08-30T05:35:55.639Z,3.67
2022-08-30T05:38:22.817Z,3.33
2022-08-30T05:43:17.606Z,3.75
2022-08-30T05:45:44.791Z,3.78
2022-08-30T05:48:13.021Z,3.60
2022-08-30T05:50:40.413Z,3.30
2022-08-30T05:53:07.606Z,3.67
2022-08-30T05:55:35.614Z,3.30
2022-08-30T05:58:02.800Z,3.78
2022-08-30T06:00:31.002Z,4.05
2022-08-30T06:02:58.860Z,3.60
2022-08-30T06:05:26.237Z,3.33
2022-08-30T06:07:53.443Z,3.13
2022-08-30T06:10:20.730Z,3.40
2022-08-30T06:12:47.970Z,2.92
2022-08-30T06:15:15.239Z,3.58
2022-08-30T06:17:42.523Z,3.40
2022-08-30T06:20:10.119Z,2.90
2022-08-30T06:22:38.909Z,3.50
2022-08-30T06:25:06.676Z,3.55
2022-08-30T06:27:33.862Z,3.13
2022-08-30T06:30:01.127Z,3.67
2022-08-30T06:32:28.336Z,3.05
2022-08-30T06:34:55.575Z,2.88
2022-08-30T06:37:30.139Z,3.60
2022-08-30T06:39:58.398Z,3.33
2022-08-30T06:42:31.671Z,3.08
2022-08-30T06:44:59.798Z,3.30
2022-08-30T06:47:27.131Z,3.30
2022-08-30T06:49:54.305Z,2.95
2022-08-30T06:52:22.316Z,2.85
2022-08-30T06:54:49.801Z,3.40
2022-08-30T06:57:18.495Z,3.28
2022-08-30T06:59:45.672Z,3.10
2022-08-30T07:02:13.020Z,3.25
2022-08-30T07:04:40.272Z,3.25
2022-08-30T07:07:07.521Z,3.15
2022-08-30T07:09:35.460Z,3.67
2022-08-30T07:12:04.147Z,3.03
2022-08-30T07:14:31.430Z,3.00
2022-08-30T07:16:58.631Z,3.67
2022-08-30T07:19:25.880Z,3.35
2022-08-30T07:21:53.088Z,3.53
2022-08-30T07:24:20.863Z,3.30
2022-08-30T07:26:51.676Z,3.40
2022-08-30T07:29:18.984Z,3.58
2022-08-30T07:31:46.167Z,3.70
2022-08-30T07:34:13.414Z,3.10
2022-08-30T07:36:40.682Z,3.20
2022-08-30T07:39:08.350Z,3.53
2022-08-30T07:41:38.608Z,3.53
2022-08-30T07:44:06.569Z,3.50
2022-08-30T07:46:33.878Z,3.33
2022-08-30T07:49:01.862Z,3.60
2022-08-30T07:51:31.901Z,3.42
2022-08-30T07:53:59.234Z,3.28
2022-08-30T07:56:26.461Z,3.72
2022-08-30T07:58:53.795Z,2.72
2022-08-30T08:01:22.396Z,3.05
2022-08-30T08:03:53.040Z,3.20
2022-08-30T08:06:21.076Z,2.92
2022-08-30T08:08:48.260Z,3.00
2022-08-30T08:11:20.851Z,3.25
2022-08-30T08:13:53.324Z,3.15
2022-08-30T08:16:22.851Z,3.53
2022-08-30T08:18:50.153Z,3.47
2022-08-30T08:21:17.412Z,3.25
2022-08-30T08:23:44.803Z,3.15
2022-08-30T08:26:11.995Z,3.17
2022-08-30T08:28:39.444Z,2.85
2022-08-30T08:31:31.511Z,2.35
2022-08-30T08:34:02.839Z,3.22
2022-08-30T08:36:31.311Z,2.90
2022-08-30T08:38:58.616Z,3.25
2022-08-30T08:41:52.455Z,2.90
2022-08-30T08:44:19.642Z,3.42
2022-08-30T08:46:49.856Z,2.80
2022-08-30T08:49:17.129Z,3.22
2022-08-30T08:52:03.184Z,3.15
2022-08-30T08:54:37.661Z,3.88
2022-08-30T08:57:05.076Z,4.35
2022-08-30T08:59:32.307Z,3.60
2022-08-30T09:02:01.784Z,2.92
2022-08-30T09:04:34.567Z,3.40
2022-08-30T09:07:04.001Z,3.30
2022-08-30T09:09:32.741Z,3.85
2022-08-30T09:11:59.924Z,3.22
2022-08-30T09:14:30.054Z,3.60
2022-08-30T09:17:02.834Z,3.70
2022-08-30T09:19:34.314Z,3.60
2022-08-30T09:22:04.322Z,3.70
2022-08-30T09:24:42.911Z,3.40
2022-08-30T09:27:16.824Z,3.70
2022-08-30T09:29:56.900Z,3.67
2022-08-30T09:32:29.715Z,3.25
2022-08-30T09:34:57.541Z,4.00
2022-08-30T09:37:37.100Z,3.40
2022-08-30T09:40:10.197Z,3.95
2022-08-30T09:42:37.657Z,3.58
2022-08-30T09:45:11.706Z,3.75
2022-08-30T09:47:43.253Z,3.33
2022-08-30T09:50:14.894Z,4.00
2022-08-30T09:53:01.165Z,3.40
2022-08-30T09:55:37.478Z,3.33
2022-08-30T09:58:11.579Z,3.58
2022-08-30T10:00:47.297Z,3.80
2022-08-30T10:03:30.006Z,3.40
2022-08-30T10:06:10.830Z,3.40
2022-08-30T10:08:41.584Z,4.13
2022-08-30T10:13:56.787Z,3.53
2022-08-30T10:16:42.885Z,3.53
2022-08-30T10:21:37.204Z,3.50
2022-08-30T10:24:13.416Z,3.00
2022-08-30T10:26:51.326Z,3.05
2022-08-30T10:29:24.577Z,3.63
2022-08-30T10:32:04.662Z,3.35
2022-08-30T10:34:31.824Z,2.95
2022-08-30T10:37:01.831Z,3.42
2022-08-30T10:39:32.029Z,3.22
2022-08-30T10:42:08.435Z,3.85
2022-08-30T10:44:39.660Z,3.85
2022-08-30T10:47:23.308Z,3.40
2022-08-30T10:52:21.035Z,3.33
2022-08-30T10:54:53.847Z,3.53
2022-08-30T10:57:21.383Z,3.42
2022-08-30T11:00:00.150Z,3.35
2022-08-30T11:02:36.410Z,3.42
2022-08-30T11:05:06.108Z,3.78
2022-08-30T11:07:33.251Z,3.50
2022-08-30T11:10:19.212Z,3.80
2022-08-30T11:15:19.322Z,4.10
2022-08-30T11:17:54.412Z,3.72
2022-08-30T11:20:24.465Z,3.88
2022-08-30T11:23:10.554Z,3.78
2022-08-30T11:25:53.549Z,3.83
2022-08-30T11:28:37.766Z,3.70
2022-08-30T11:31:12.293Z,3.90
2022-08-30T11:33:43.035Z,3.90
2022-08-30T11:36:37.865Z,4.10
2022-08-30T11:39:11.432Z,3.17
2022-08-30T11:41:42.514Z,3.78
2022-08-30T11:44:15.549Z,4.40
2022-08-30T11:46:43.332Z,3.45
2022-08-30T11:49:15.674Z,3.45
2022-08-30T11:52:23.633Z,3.90
2022-08-30T11:54:52.785Z,3.60
2022-08-30T11:57:38.843Z,3.90
2022-08-30T12:00:34.997Z,3.78
2022-08-30T12:03:28.553Z,3.85
2022-08-30T12:10:59.947Z,4.07
2022-08-30T12:13:37.700Z,4.05
2022-08-30T12:16:06.318Z,3.40
2022-08-30T12:18:43.241Z,3.55
2022-08-30T12:21:21.356Z,3.70
2022-08-30T12:23:49.585Z,3.85
2022-08-30T12:26:25.904Z,3.97
2022-08-30T12:29:05.971Z,3.67
2022-08-30T12:31:33.622Z,4.00
2022-08-30T12:34:01.769Z,3.50
2022-08-30T12:39:05.717Z,3.03
2022-08-30T12:41:32.981Z,3.72
2022-08-30T12:44:01.766Z,3.60
2022-08-30T12:46:32.903Z,4.38
2022-08-30T12:49:01.061Z,4.07
2022-08-30T12:51:42.934Z,3.60
2022-08-30T12:54:14.776Z,4.07
2022-08-30T12:56:50.682Z,4.15
2022-08-30T12:59:36.587Z,3.83
2022-08-30T13:02:09.207Z,3.15
2022-08-30T13:04:48.803Z,3.95
2022-08-30T13:07:45.522Z,3.83
2022-08-30T13:10:21.150Z,3.85
2022-08-30T13:13:00.870Z,3.78
2022-08-30T13:15:29.973Z,4.60
2022-08-30T13:18:12.365Z,3.60
2022-08-30T13:20:40.458Z,3.70
2022-08-30T13:23:09.727Z,3.53
2022-08-30T13:28:05.149Z,4.07
2022-08-30T13:37:56.360Z,3.67
2022-08-30T13:40:24.050Z,3.58
2022-08-30T13:42:51.777Z,4.30
2022-08-30T13:48:07.213Z,4.00
2022-08-30T13:50:34.383Z,3.97
2022-08-30T13:53:01.720Z,4.10
2022-08-30T13:55:28.989Z,3.42
2022-08-30T13:57:57.663Z,3.53
2022-08-30T14:00:25.869Z,3.90
2022-08-30T14:02:56.068Z,4.38
2022-08-30T14:11:02.305Z,4.15
2022-08-30T14:13:29.807Z,3.35
2022-08-30T14:18:46.318Z,3.80
2022-08-30T14:21:13.480Z,3.53
2022-08-30T14:23:40.678Z,4.00
2022-08-30T14:26:14.894Z,3.65
2022-08-30T14:28:44.834Z,3.60
2022-08-30T14:31:12.242Z,4.00
2022-08-30T14:33:40.460Z,3.88
2022-08-30T14:36:12.963Z,4.50
2022-08-30T14:38:43.114Z,4.15
2022-08-30T14:41:10.969Z,3.90
2022-08-30T14:43:40.354Z,4.18
2022-08-30T14:46:08.569Z,3.88
2022-08-30T14:48:36.675Z,4.43
2022-08-30T14:51:04.366Z,4.13
2022-08-30T14:53:31.476Z,4.00
2022-08-30T14:55:58.888Z,4.93
2022-08-30T14:58:26.049Z,3.85
2022-08-30T15:00:53.674Z,3.90
2022-08-30T15:03:20.840Z,4.47
2022-08-30T15:05:52.901Z,4.25
2022-08-30T15:08:20.443Z,3.78
2022-08-30T15:10:47.641Z,4.03
2022-08-30T15:13:15.122Z,4.20
2022-08-30T15:15:43.585Z,4.13
2022-08-30T15:18:10.819Z,4.13
2022-08-30T15:20:38.055Z,4.35
2022-08-30T15:23:05.227Z,3.50
2022-08-30T15:25:33.668Z,3.88
2022-08-30T15:28:47.081Z,4.20
2022-08-30T15:38:19.703Z,4.07
2022-08-30T15:40:50.577Z,3.85
2022-08-30T15:43:18.415Z,3.53
2022-08-30T15:45:45.837Z,3.92
2022-08-30T15:48:13.160Z,4.00
2022-08-30T15:50:40.471Z,4.38
2022-08-30T15:53:07.866Z,3.78
2022-08-30T15:55:35.289Z,3.72
2022-08-30T15:58:03.019Z,3.55
2022-08-30T16:00:30.426Z,3.83
2022-08-30T16:02:57.697Z,3.45
2022-08-30T16:05:25.602Z,3.63
2022-08-30T16:07:52.867Z,3.58
2022-08-30T16:10:20.065Z,3.53
2022-08-30T16:12:49.648Z,3.80
2022-08-30T16:15:19.129Z,3.35
2022-08-30T16:17:47.034Z,3.80
2022-08-30T16:20:17.699Z,3.28
2022-08-30T16:22:45.879Z,3.40
2022-08-30T16:25:14.306Z,3.75
2022-08-30T16:27:43.107Z,3.00
2022-08-30T16:30:11.553Z,3.03
2022-08-30T16:32:39.664Z,3.67
2022-08-30T16:35:08.175Z,4.00
2022-08-30T16:37:37.250Z,3.75
2022-08-30T16:40:07.666Z,3.83
2022-08-30T16:42:35.703Z,3.77
2022-08-30T16:45:10.439Z,3.00
2022-08-30T16:47:38.199Z,3.83
2022-08-30T16:50:05.866Z,4.10
2022-08-30T16:52:34.960Z,3.55
2022-08-30T16:55:02.253Z,3.75
2022-08-30T16:57:31.314Z,3.63
2022-08-30T16:59:59.768Z,4.07
2022-08-30T17:02:26.965Z,3.28
2022-08-30T17:04:57.751Z,3.80
2022-08-30T17:07:25.577Z,3.55
2022-08-30T17:09:57.370Z,3.90
2022-08-30T17:12:25.013Z,3.40
2022-08-30T17:14:53.380Z,3.70
2022-08-30T17:20:10.419Z,3.65
2022-08-30T17:22:37.723Z,3.45
2022-08-30T17:25:07.643Z,3.13
2022-08-30T17:27:35.019Z,3.40
2022-08-30T17:30:02.441Z,3.75
2022-08-30T17:32:30.030Z,3.40
2022-08-30T17:34:57.183Z,3.33
2022-08-30T17:37:31.680Z,3.30
2022-08-30T17:40:00.571Z,3.63
2022-08-30T17:42:29.623Z,3.63
2022-08-30T17:44:59.491Z,3.38
2022-08-30T17:47:29.549Z,3.85
2022-08-30T17:50:03.386Z,3.75
2022-08-30T17:52:35.332Z,3.75
2022-08-30T17:55:03.935Z,3.67
2022-08-30T17:57:31.378Z,3.83
2022-08-30T18:00:01.209Z,3.78
2022-08-30T18:02:30.674Z,3.90
2022-08-30T18:05:00.934Z,4.07
2022-08-30T18:07:30.605Z,3.85
2022-08-30T18:09:58.277Z,3.85
2022-08-30T18:12:26.905Z,3.47
2022-08-30T18:14:54.289Z,3.47
2022-08-30T18:17:24.179Z,4.13
2022-08-30T18:19:51.540Z,3.30
2022-08-30T18:22:18.765Z,3.70
2022-08-30T18:24:46.881Z,3.45
2022-08-30T18:27:15.444Z,4.70
2022-08-30T18:29:42.905Z,3.42
2022-08-30T18:32:10.151Z,4.03
2022-08-30T18:34:37.403Z,3.70
2022-08-30T18:37:05.039Z,3.80
2022-08-30T18:39:38.482Z,3.90
2022-08-30T18:42:08.310Z,3.80
2022-08-30T18:44:37.243Z,4.13
2022-08-30T18:47:05.621Z,3.85
2022-08-30T18:49:33.868Z,4.15
2022-08-30T18:52:01.688Z,4.53
2022-08-30T18:54:29.417Z,3.53
2022-08-30T18:56:57.061Z,4.20
2022-08-30T18:59:35.644Z,4.00
2022-08-30T19:02:04.646Z,3.80
2022-08-30T19:04:35.230Z,3.92
2022-08-30T19:07:03.465Z,5.03
2022-08-30T19:09:30.926Z,4.97
2022-08-30T19:11:58.084Z,4.63
2022-08-30T19:14:28.164Z,4.47
2022-08-30T19:16:56.273Z,4.35
2022-08-30T19:19:23.896Z,4.40
2022-08-30T19:21:51.815Z,3.70
2022-08-30T19:24:19.882Z,4.65
2022-08-30T19:26:48.081Z,4.63
2022-08-30T19:29:15.366Z,4.75
2022-08-30T19:31:43.836Z,4.68
2022-08-30T19:34:11.260Z,5.20
2022-08-30T19:36:39.039Z,4.65
2022-08-30T19:39:07.064Z,4.50
2022-08-30T19:41:34.223Z,4.22
2022-08-30T19:44:03.148Z,3.85
2022-08-30T19:46:30.811Z,3.85
2022-08-30T19:49:01.053Z,4.75
2022-08-30T19:51:28.280Z,4.93
2022-08-30T19:53:56.380Z,4.97
2022-08-30T19:56:26.405Z,4.88
2022-08-30T19:58:53.613Z,4.68
2022-08-30T20:01:33.155Z,4.68
2022-08-30T20:04:01.993Z,4.65
2022-08-30T20:06:29.870Z,4.63
2022-08-30T20:08:58.113Z,5.00
2022-08-30T20:11:27.672Z,4.57
2022-08-30T20:13:54.820Z,4.78
2022-08-30T20:16:22.051Z,4.88
2022-08-30T20:19:02.881Z,4.47
2022-08-30T20:21:31.206Z,4.57
2022-08-30T20:23:58.530Z,4.30
2022-08-30T20:24:24.957Z,3.53
2022-08-30T20:26:33.531Z,4.45
2022-08-30T20:29:01.833Z,3.80
2022-08-30T20:31:29.189Z,4.50
2022-08-30T20:33:56.400Z,4.25
2022-08-30T20:36:23.609Z,4.57
2022-08-30T20:38:51.117Z,4.30
2022-08-30T20:41:19.034Z,3.65
2022-08-30T20:43:46.532Z,4.50
2022-08-30T20:46:15.942Z,3.88
2022-08-30T20:48:43.531Z,4.43
2022-08-30T20:51:12.028Z,4.43
2022-08-30T20:53:39.282Z,4.15
2022-08-30T20:56:11.506Z,4.57
2022-08-30T20:58:38.618Z,3.67
2022-08-30T21:01:08.541Z,4.10
2022-08-30T21:03:36.835Z,3.63
2022-08-30T21:06:04.440Z,4.43
2022-08-30T21:08:32.503Z,4.40
2022-08-30T21:10:59.974Z,4.10
2022-08-30T21:13:27.104Z,3.85
2022-08-30T21:15:54.985Z,3.80
2022-08-30T21:18:25.794Z,3.80
2022-08-30T21:20:52.947Z,3.75
2022-08-30T21:23:20.098Z,3.92
2022-08-30T21:25:47.232Z,3.60
2022-08-30T21:28:14.387Z,3.67
2022-08-30T21:30:44.865Z,3.60
2022-08-30T21:33:12.109Z,3.83
2022-08-30T21:35:57.881Z,3.60
2022-08-30T21:38:25.965Z,3.45
2022-08-30T21:40:53.142Z,3.53
2022-08-30T21:43:20.268Z,3.53
2022-08-30T21:45:50.167Z,3.42
2022-08-30T21:48:17.483Z,3.60
2022-08-30T21:50:46.434Z,3.72
2022-08-30T21:53:15.165Z,3.45
2022-08-30T21:55:43.709Z,3.63
2022-08-30T21:58:11.150Z,3.90
2022-08-30T22:00:38.277Z,3.95
2022-08-30T22:03:05.436Z,3.42
2022-08-30T22:05:32.601Z,3.42
2022-08-30T22:07:59.846Z,3.95
2022-08-30T22:10:31.124Z,3.97
2022-08-30T22:13:00.077Z,3.85
2022-08-30T22:15:27.227Z,3.97
2022-08-30T22:17:54.423Z,3.97
2022-08-30T22:20:21.571Z,3.88
2022-08-30T22:22:48.756Z,3.60
2022-08-30T22:25:15.898Z,4.45
2022-08-30T22:27:43.047Z,3.55
2022-08-30T22:30:10.500Z,3.45
2022-08-30T22:32:38.218Z,4.13
2022-08-30T22:35:05.727Z,3.60
2022-08-30T22:37:33.965Z,3.72
2022-08-30T22:40:01.132Z,3.95
2022-08-30T22:42:28.254Z,4.20
2022-08-30T22:44:55.430Z,3.45
2022-08-30T22:47:22.626Z,4.00
2022-08-30T22:49:49.796Z,4.15
2022-08-30T22:52:16.923Z,3.25
2022-08-30T22:54:49.401Z,3.83
2022-08-30T22:57:19.345Z,3.58
2022-08-30T22:59:46.832Z,3.85
2022-08-30T23:02:14.044Z,3.50
2022-08-30T23:04:41.263Z,3.72
2022-08-30T23:07:08.437Z,3.67
2022-08-30T23:09:35.564Z,4.05
2022-08-30T23:12:02.767Z,3.70
2022-08-30T23:14:29.902Z,4.15
2022-08-30T23:16:57.182Z,4.10
2022-08-30T23:19:24.384Z,3.50
2022-08-30T23:21:51.561Z,3.83
2022-08-30T23:24:37.195Z,3.95
2022-08-30T23:27:23.163Z,3.95
2022-08-30T23:30:09.091Z,3.90
2022-08-30T23:32:55.186Z,3.42
2022-08-30T23:35:42.288Z,3.45
2022-08-30T23:38:28.284Z,3.97
2022-08-30T23:41:14.184Z,3.95
2022-08-30T23:44:00.234Z,3.58
2022-08-30T23:46:46.187Z,4.35
2022-08-30T23:49:32.265Z,3.38
2022-08-30T23:52:18.145Z,3.58
2022-08-30T23:55:04.279Z,3.70
2022-08-30T23:57:50.320Z,4.15
